createdAt,value
2023-03-01T00:00:59.618Z,102527.03
2023-03-01T00:03:31.612Z,102524.50
2023-03-01T00:06:03.167Z,102525.44
2023-03-01T00:08:34.965Z,102509.75
2023-03-01T00:11:06.538Z,102513.13
2023-03-01T00:13:38.464Z,102506.31
2023-03-01T00:16:09.950Z,102503.69
2023-03-01T00:18:41.802Z,102497.63
2023-03-01T00:21:13.330Z,102502.13
2023-03-01T00:23:45.151Z,102496.16
2023-03-01T00:26:16.655Z,102491.09
2023-03-01T00:28:48.402Z,102502.50
2023-03-01T00:31:19.927Z,102497.47
2023-03-01T00:33:51.751Z,102488.78
2023-03-01T00:36:23.246Z,102496.72
2023-03-01T00:38:55.096Z,102497.75
2023-03-01T00:41:29.714Z,102488.22
2023-03-01T00:44:01.721Z,102480.38
2023-03-01T00:46:33.559Z,102495.22
2023-03-01T00:49:05.800Z,102485.81
2023-03-01T00:51:37.307Z,102492.06
2023-03-01T00:54:09.060Z,102478.25
2023-03-01T00:56:40.577Z,102484.38
2023-03-01T00:59:12.358Z,102486.16
2023-03-01T01:01:43.889Z,102481.13
2023-03-01T01:04:15.719Z,102479.44
2023-03-01T01:06:47.213Z,102485.69
2023-03-01T01:09:18.722Z,102480.66
2023-03-01T01:11:50.290Z,102482.34
2023-03-01T01:14:21.985Z,102478.22
2023-03-01T01:16:53.647Z,102480.19
2023-03-01T01:19:25.206Z,102469.84
2023-03-01T01:21:56.722Z,102468.16
2023-03-01T01:24:28.514Z,102462.94
2023-03-01T01:27:00.006Z,102446.50
2023-03-01T01:29:31.813Z,102453.59
2023-03-01T01:32:03.352Z,102460.69
2023-03-01T01:34:35.166Z,102458.28
2023-03-01T01:37:08.783Z,102449.88
2023-03-01T01:39:40.321Z,102450.06
2023-03-01T01:42:12.026Z,102457.91
2023-03-01T01:44:43.841Z,102441.72
2023-03-01T01:47:15.384Z,102443.78
2023-03-01T01:49:47.188Z,102444.06
2023-03-01T01:52:18.657Z,102453.00
2023-03-01T01:54:50.525Z,102454.13
2023-03-01T01:57:22.006Z,102457.00
2023-03-01T01:59:53.807Z,102459.63
2023-03-01T02:02:25.367Z,102460.56
2023-03-01T02:04:57.330Z,102460.47
2023-03-01T02:07:28.832Z,102457.84
2023-03-01T02:10:00.651Z,102452.63
2023-03-01T02:12:32.195Z,102449.28
2023-03-01T02:15:03.949Z,102453.75
2023-03-01T02:17:35.538Z,102462.59
2023-03-01T02:20:08.284Z,102458.31
2023-03-01T02:22:40.006Z,102448.69
2023-03-01T02:25:11.843Z,102455.69
2023-03-01T02:27:43.355Z,102454.00
2023-03-01T02:30:15.233Z,102458.44
2023-03-01T02:32:46.764Z,102450.81
2023-03-01T02:35:18.675Z,102454.34
2023-03-01T02:37:50.278Z,102451.81
2023-03-01T02:40:23.003Z,102453.78
2023-03-01T02:42:54.475Z,102455.53
2023-03-01T02:45:26.259Z,102460.75
2023-03-01T02:47:57.771Z,102458.25
2023-03-01T02:50:29.434Z,102464.31
2023-03-01T02:53:00.957Z,102460.94
2023-03-01T02:55:32.899Z,102458.44
2023-03-01T02:58:04.400Z,102450.69
2023-03-01T03:00:36.321Z,102450.03
2023-03-01T03:03:07.870Z,102446.75
2023-03-01T03:05:39.678Z,102438.94
2023-03-01T03:08:12.025Z,102439.09
2023-03-01T03:10:46.550Z,102440.03
2023-03-01T03:13:18.178Z,102438.34
2023-03-01T03:15:49.744Z,102437.69
2023-03-01T03:18:21.226Z,102441.31
2023-03-01T03:20:54.038Z,102442.31
2023-03-01T03:23:25.556Z,102440.81
2023-03-01T03:25:57.444Z,102434.94
2023-03-01T03:28:28.937Z,102434.94
2023-03-01T03:31:04.874Z,102433.06
2023-03-01T03:33:36.385Z,102423.47
2023-03-01T03:36:08.295Z,102424.50
2023-03-01T03:38:39.837Z,102417.78
2023-03-01T03:41:11.757Z,102417.97
2023-03-01T03:43:44.257Z,102417.03
2023-03-01T03:46:16.212Z,102417.13
2023-03-01T03:48:47.750Z,102412.00
2023-03-01T03:51:19.630Z,102406.78
2023-03-01T03:53:51.203Z,102182.09
2023-03-01T03:56:28.588Z,102405.44
2023-03-01T03:59:00.455Z,102401.25
2023-03-01T04:01:32.429Z,102400.41
2023-03-01T04:04:05.103Z,102403.03
2023-03-01T04:06:37.051Z,102399.66
2023-03-01T04:09:10.052Z,102394.00
2023-03-01T04:11:41.858Z,102394.44
2023-03-01T04:14:13.398Z,102397.13
2023-03-01T04:16:44.945Z,102406.63
2023-03-01T04:19:16.517Z,102409.00
2023-03-01T04:21:48.395Z,102406.28
2023-03-01T04:24:20.158Z,102404.63
2023-03-01T04:26:51.641Z,102400.31
2023-03-01T04:29:23.398Z,102400.50
2023-03-01T04:31:54.983Z,102396.97
2023-03-01T04:34:28.146Z,102396.13
2023-03-01T04:36:59.630Z,102391.00
2023-03-01T04:39:31.417Z,102398.81
2023-03-01T04:42:02.907Z,102390.16
2023-03-01T04:44:34.811Z,102400.75
2023-03-01T04:47:06.299Z,102388.06
2023-03-01T04:49:38.173Z,102394.31
2023-03-01T04:52:10.233Z,102389.94
2023-03-01T04:54:42.071Z,102390.84
2023-03-01T04:57:13.555Z,102389.34
2023-03-01T04:59:45.414Z,102394.56
2023-03-01T05:02:16.923Z,102394.66
2023-03-01T05:04:48.826Z,102392.03
2023-03-01T05:07:20.366Z,102389.44
2023-03-01T05:09:54.027Z,102385.06
2023-03-01T05:12:26.535Z,102178.28
2023-03-01T05:14:59.582Z,102386.06
2023-03-01T05:17:31.045Z,102389.44
2023-03-01T05:20:04.502Z,102392.13
2023-03-01T05:22:36.273Z,102385.31
2023-03-01T05:25:08.240Z,102383.66
2023-03-01T05:27:39.741Z,102390.69
2023-03-01T05:30:14.402Z,102396.97
2023-03-01T05:32:46.076Z,102390.09
2023-03-01T05:35:17.581Z,102388.41
2023-03-01T05:37:49.059Z,102385.72
2023-03-01T05:40:20.837Z,102387.47
2023-03-01T05:42:52.310Z,102379.59
2023-03-01T05:45:24.067Z,102381.28
2023-03-01T05:47:56.058Z,102376.13
2023-03-01T05:50:27.726Z,102380.41
2023-03-01T05:52:59.231Z,102377.16
2023-03-01T05:55:30.860Z,102383.03
2023-03-01T05:58:02.480Z,102382.88
2023-03-01T06:00:34.024Z,102382.72
2023-03-01T06:03:05.647Z,102390.34
2023-03-01T06:05:37.541Z,102386.56
2023-03-01T06:08:09.061Z,102382.03
2023-03-01T06:10:40.913Z,102378.41
2023-03-01T06:13:12.373Z,102380.00
2023-03-01T06:15:44.180Z,102378.81
2023-03-01T06:18:15.741Z,102379.16
2023-03-01T06:20:47.774Z,102380.31
2023-03-01T06:23:19.254Z,102381.44
2023-03-01T06:25:51.149Z,102381.84
2023-03-01T06:28:22.698Z,102380.41
2023-03-01T06:30:54.727Z,102378.00
2023-03-01T06:33:26.222Z,102379.13
2023-03-01T06:35:57.761Z,102388.84
2023-03-01T06:38:29.258Z,102385.50
2023-03-01T06:41:00.944Z,102381.50
2023-03-01T06:43:32.421Z,102378.69
2023-03-01T06:46:04.217Z,102382.91
2023-03-01T06:48:35.682Z,102386.25
2023-03-01T06:51:07.508Z,102382.31
2023-03-01T06:53:38.981Z,102382.81
2023-03-01T06:56:10.817Z,102379.88
2023-03-01T06:58:42.290Z,102382.34
2023-03-01T07:01:14.021Z,102378.53
2023-03-01T07:03:45.580Z,102382.44
2023-03-01T07:06:17.286Z,102388.81
2023-03-01T07:08:48.747Z,102392.31
2023-03-01T07:11:20.453Z,102396.72
2023-03-01T07:13:51.946Z,102390.63
2023-03-01T07:16:23.812Z,102393.97
2023-03-01T07:18:55.360Z,102402.88
2023-03-01T07:21:26.905Z,102398.63
2023-03-01T07:23:58.379Z,102401.44
2023-03-01T07:26:30.054Z,102409.78
2023-03-01T07:29:01.705Z,102404.44
2023-03-01T07:31:33.367Z,102399.38
2023-03-01T07:34:04.924Z,102400.50
2023-03-01T07:36:36.855Z,102404.84
2023-03-01T07:39:08.379Z,102398.56
2023-03-01T07:41:39.919Z,102395.97
2023-03-01T07:44:11.733Z,102399.84
2023-03-01T07:46:43.273Z,102392.44
2023-03-01T07:49:14.807Z,102405.09
2023-03-01T07:51:46.605Z,102402.97
2023-03-01T07:54:18.991Z,102400.03
2023-03-01T07:56:50.501Z,102395.25
2023-03-01T07:59:22.035Z,102393.44
2023-03-01T08:01:53.842Z,102397.22
2023-03-01T08:04:28.418Z,102395.53
2023-03-01T08:07:00.100Z,102391.03
2023-03-01T08:09:31.625Z,102394.31
2023-03-01T08:12:03.419Z,102388.75
2023-03-01T08:17:42.853Z,102388.53
2023-03-01T08:20:14.328Z,102385.06
2023-03-01T08:22:45.797Z,102380.88
2023-03-01T08:25:17.360Z,102379.00
2023-03-01T08:27:48.878Z,102371.44
2023-03-01T08:30:21.375Z,102376.34
2023-03-01T08:32:53.325Z,102372.19
2023-03-01T08:35:24.906Z,102377.19
2023-03-01T08:37:56.831Z,102380.34
2023-03-01T08:40:28.302Z,102376.31
2023-03-01T08:42:59.900Z,102371.69
2023-03-01T08:45:31.458Z,102380.38
2023-03-01T08:48:02.983Z,102376.31
2023-03-01T08:50:34.692Z,102367.84
2023-03-01T08:53:06.173Z,102377.00
2023-03-01T08:55:38.127Z,102372.88
2023-03-01T08:58:09.614Z,102370.22
2023-03-01T09:00:41.436Z,102372.25
2023-03-01T09:03:12.888Z,102367.34
2023-03-01T09:05:47.136Z,102366.78
2023-03-01T09:08:18.755Z,102364.09
2023-03-01T09:10:50.649Z,102357.88
2023-03-01T09:13:24.603Z,102356.25
2023-03-01T09:15:56.387Z,102355.81
2023-03-01T09:18:27.911Z,102360.72
2023-03-01T09:20:59.680Z,102348.69
2023-03-01T09:23:31.172Z,102347.09
2023-03-01T09:26:03.001Z,102354.31
2023-03-01T09:28:34.469Z,102354.81
2023-03-01T09:31:06.002Z,102352.59
2023-03-01T09:33:37.537Z,102351.75
2023-03-01T09:36:09.113Z,102343.88
2023-03-01T09:38:40.895Z,102343.66
2023-03-01T09:41:12.769Z,102349.06
2023-03-01T09:43:47.238Z,102332.69
2023-03-01T09:46:19.184Z,102342.31
2023-03-01T09:48:50.847Z,102346.22
2023-03-01T09:51:22.709Z,102335.34
2023-03-01T09:53:55.564Z,102341.25
2023-03-01T09:56:27.032Z,102335.88
2023-03-01T09:58:58.527Z,102337.44
2023-03-01T10:01:32.729Z,102336.22
2023-03-01T10:04:04.438Z,102344.28
2023-03-01T10:06:36.209Z,102338.72
2023-03-01T10:09:07.755Z,102344.56
2023-03-01T10:11:40.459Z,102342.16
2023-03-01T10:14:12.251Z,102346.41
2023-03-01T10:16:43.815Z,102344.69
2023-03-01T10:19:15.464Z,102342.81
2023-03-01T10:21:47.278Z,102337.25
2023-03-01T10:24:20.868Z,102352.28
2023-03-01T10:26:52.372Z,102335.28
2023-03-01T10:29:25.052Z,102344.88
2023-03-01T10:31:56.654Z,102340.09
2023-03-01T10:34:28.212Z,102339.56
2023-03-01T10:36:59.967Z,102337.94
2023-03-01T10:39:31.475Z,102325.69
2023-03-01T10:42:03.498Z,102324.19
2023-03-01T10:44:34.973Z,102310.69
2023-03-01T10:47:06.446Z,102310.25
2023-03-01T10:49:38.041Z,102323.50
2023-03-01T10:52:09.753Z,102312.81
2023-03-01T10:54:42.474Z,102311.25
2023-03-01T10:57:14.263Z,102309.78
2023-03-01T10:59:45.745Z,102313.81
2023-03-01T11:02:24.859Z,102313.94
2023-03-01T11:04:57.057Z,102306.28
2023-03-01T11:07:28.618Z,102301.69
2023-03-01T11:10:00.129Z,102296.88
2023-03-01T11:12:33.584Z,102293.78
2023-03-01T11:15:05.205Z,102287.97
2023-03-01T11:17:53.187Z,102279.94
2023-03-01T11:20:30.178Z,102282.72
2023-03-01T11:23:01.716Z,102272.59
2023-03-01T11:25:34.396Z,102275.63
2023-03-01T11:28:06.265Z,102274.78
2023-03-01T11:30:38.282Z,102265.69
2023-03-01T11:33:09.858Z,102271.47
2023-03-01T11:35:43.113Z,102266.16
2023-03-01T11:38:15.032Z,102260.91
2023-03-01T11:40:46.580Z,102256.03
2023-03-01T11:43:18.435Z,102260.28
2023-03-01T11:45:50.113Z,102263.72
2023-03-01T11:48:21.836Z,102262.94
2023-03-01T11:50:53.372Z,102256.22
2023-03-01T11:53:25.333Z,102261.53
2023-03-01T11:55:56.819Z,102273.63
2023-03-01T11:58:28.352Z,102269.56
2023-03-01T12:01:02.576Z,102265.03
2023-03-01T12:03:34.116Z,102269.16
2023-03-01T12:06:05.611Z,102257.50
2023-03-01T12:08:37.532Z,102257.06
2023-03-01T12:11:09.042Z,102247.94
2023-03-01T12:13:40.803Z,102244.78
2023-03-01T12:16:12.309Z,102245.91
2023-03-01T12:18:44.140Z,102240.00
2023-03-01T12:21:15.909Z,102239.13
2023-03-01T12:23:47.772Z,102238.75
2023-03-01T12:26:19.264Z,102226.78
2023-03-01T12:28:53.054Z,102232.25
2023-03-01T12:31:29.149Z,102226.78
2023-03-01T12:34:00.753Z,102230.38
2023-03-01T12:36:32.679Z,102219.34
2023-03-01T12:39:04.656Z,102219.97
2023-03-01T12:41:36.186Z,102216.47
2023-03-01T12:44:07.999Z,102211.13
2023-03-01T12:46:40.093Z,102198.00
2023-03-01T12:49:11.899Z,102198.72
2023-03-01T12:51:43.393Z,102195.97
2023-03-01T12:54:15.049Z,102192.03
2023-03-01T12:56:53.019Z,102197.47
2023-03-01T12:59:25.318Z,102194.94
2023-03-01T13:01:56.879Z,102193.19
2023-03-01T13:04:28.376Z,102183.91
2023-03-01T13:06:59.879Z,102183.53
2023-03-01T13:09:31.857Z,102178.56
2023-03-01T13:12:08.187Z,102177.19
2023-03-01T13:14:44.734Z,102178.50
2023-03-01T13:17:16.577Z,102177.38
2023-03-01T13:19:48.081Z,102177.19
2023-03-01T13:22:19.924Z,102177.59
2023-03-01T13:24:51.421Z,102179.09
2023-03-01T13:27:23.949Z,102169.81
2023-03-01T13:29:55.758Z,102174.84
2023-03-01T13:32:42.760Z,102161.56
2023-03-01T13:35:15.811Z,102159.50
2023-03-01T13:37:47.583Z,102168.56
2023-03-01T13:40:19.591Z,102155.44
2023-03-01T13:43:04.315Z,102149.97
2023-03-01T13:45:37.154Z,102153.06
2023-03-01T13:48:09.022Z,102147.84
2023-03-01T13:50:42.470Z,102154.69
2023-03-01T13:53:14.244Z,102138.25
2023-03-01T13:55:46.410Z,102144.66
2023-03-01T13:58:18.490Z,102145.06
2023-03-01T14:00:50.027Z,102144.97
2023-03-01T14:03:21.827Z,102141.94
2023-03-01T14:05:54.672Z,102134.94
2023-03-01T14:08:27.644Z,102127.53
2023-03-01T14:10:59.142Z,102125.97
2023-03-01T14:13:30.621Z,102125.28
2023-03-01T14:16:02.229Z,102112.31
2023-03-01T14:18:33.790Z,102110.63
2023-03-01T14:21:05.294Z,102110.88
2023-03-01T14:23:37.857Z,102111.25
2023-03-01T14:26:10.501Z,102107.97
2023-03-01T14:28:42.103Z,102108.81
2023-03-01T14:31:13.623Z,102103.38
2023-03-01T14:33:45.476Z,102106.50
2023-03-01T14:36:16.965Z,102088.50
2023-03-01T14:38:48.861Z,102093.06
2023-03-01T14:41:20.395Z,102096.88
2023-03-01T14:43:52.231Z,102095.47
2023-03-01T14:46:23.757Z,102085.16
2023-03-01T14:48:55.574Z,102089.13
2023-03-01T14:51:27.055Z,102081.78
2023-03-01T14:53:58.914Z,102079.38
2023-03-01T14:56:30.689Z,102081.59
2023-03-01T14:59:02.712Z,102081.06
2023-03-01T15:01:34.225Z,102075.50
2023-03-01T15:04:06.069Z,102072.56
2023-03-01T15:06:37.633Z,102083.13
2023-03-01T15:09:09.298Z,102074.84
2023-03-01T15:11:44.506Z,102072.50
2023-03-01T15:14:16.438Z,102075.16
2023-03-01T15:16:50.334Z,102070.56
2023-03-01T15:19:22.130Z,102074.28
2023-03-01T15:21:53.667Z,102076.03
2023-03-01T15:24:25.207Z,102076.81
2023-03-01T15:26:58.352Z,102075.72
2023-03-01T15:29:31.026Z,102078.81
2023-03-01T15:32:04.844Z,102061.88
2023-03-01T15:34:37.991Z,102072.75
2023-03-01T15:37:09.681Z,102068.63
2023-03-01T15:39:44.660Z,102068.81
2023-03-01T15:42:17.700Z,102057.00
2023-03-01T15:44:49.536Z,102061.91
2023-03-01T15:47:21.032Z,102062.16
2023-03-01T15:49:55.272Z,102066.19
2023-03-01T15:52:30.011Z,102065.88
2023-03-01T15:55:01.797Z,102062.25
2023-03-01T15:57:33.333Z,102064.41
2023-03-01T16:00:12.575Z,102061.94
2023-03-01T16:02:44.183Z,102052.00
2023-03-01T16:05:15.723Z,102045.56
2023-03-01T16:07:47.589Z,102049.41
2023-03-01T16:10:19.477Z,102049.53
2023-03-01T16:12:53.323Z,102047.41
2023-03-01T16:15:25.264Z,102045.09
2023-03-01T16:17:56.771Z,102047.56
2023-03-01T16:20:30.880Z,102041.72
2023-03-01T16:23:03.807Z,102038.75
2023-03-01T16:25:35.489Z,102044.03
2023-03-01T16:28:10.199Z,102040.88
2023-03-01T16:30:41.989Z,102041.38
2023-03-01T16:33:26.758Z,102040.00
2023-03-01T16:36:01.075Z,102037.16
2023-03-01T16:38:33.156Z,102036.31
2023-03-01T16:41:04.666Z,102039.75
2023-03-01T16:43:36.632Z,102045.66
2023-03-01T16:46:08.144Z,102045.81
2023-03-01T16:48:40.310Z,102048.41
2023-03-01T16:51:11.796Z,102048.72
2023-03-01T16:53:43.728Z,102049.38
2023-03-01T16:56:16.225Z,102056.13
2023-03-01T16:58:48.120Z,102048.91
2023-03-01T17:01:19.724Z,102048.56
2023-03-01T17:03:51.381Z,102062.41
2023-03-01T17:06:24.458Z,102052.75
2023-03-01T17:08:55.983Z,102063.44
2023-03-01T17:11:27.478Z,102059.91
2023-03-01T17:13:59.026Z,102057.56
2023-03-01T17:16:30.560Z,102059.38
2023-03-01T17:19:02.511Z,102058.84
2023-03-01T17:21:34.648Z,102062.94
2023-03-01T17:24:06.410Z,102061.59
2023-03-01T17:26:37.904Z,102055.94
2023-03-01T17:29:09.480Z,102065.84
2023-03-01T17:31:41.045Z,102062.09
2023-03-01T17:34:12.955Z,102065.22
2023-03-01T17:36:45.778Z,102060.38
2023-03-01T17:39:17.681Z,102060.16
2023-03-01T17:41:49.292Z,102067.56
2023-03-01T17:44:20.838Z,102065.66
2023-03-01T17:46:52.382Z,102064.59
2023-03-01T17:49:23.865Z,102063.97
2023-03-01T17:51:55.341Z,102070.81
2023-03-01T17:54:27.189Z,102069.63
2023-03-01T17:56:58.902Z,102073.81
2023-03-01T17:59:33.344Z,102085.97
2023-03-01T18:02:04.932Z,102067.34
2023-03-01T18:04:36.871Z,102066.38
2023-03-01T18:07:08.370Z,102071.94
2023-03-01T18:09:40.225Z,102073.22
2023-03-01T18:12:11.730Z,102072.97
2023-03-01T18:14:43.738Z,102096.78
2023-03-01T18:17:15.317Z,102076.78
2023-03-01T18:19:47.190Z,102075.16
2023-03-01T18:22:18.735Z,102079.50
2023-03-01T18:24:50.492Z,102074.09
2023-03-01T18:27:21.973Z,102077.28
2023-03-01T18:29:53.844Z,102063.97
2023-03-01T18:32:26.551Z,102068.16
2023-03-01T18:34:58.486Z,102073.16
2023-03-01T18:37:29.954Z,102067.22
2023-03-01T18:40:01.766Z,102078.59
2023-03-01T18:42:33.252Z,102077.59
2023-03-01T18:45:05.016Z,102068.88
2023-03-01T18:47:36.474Z,102072.63
2023-03-01T18:50:08.200Z,102078.19
2023-03-01T18:52:39.722Z,102074.00
2023-03-01T18:55:11.249Z,102069.03
2023-03-01T18:57:42.714Z,102072.06
2023-03-01T19:00:14.749Z,102061.78
2023-03-01T19:02:47.389Z,102069.28
2023-03-01T19:05:19.298Z,102070.53
2023-03-01T19:07:52.188Z,102073.44
2023-03-01T19:10:23.823Z,102068.88
2023-03-01T19:12:55.395Z,102071.66
2023-03-01T19:15:27.021Z,102079.41
2023-03-01T19:17:58.907Z,102072.16
2023-03-01T19:20:30.397Z,102075.22
2023-03-01T19:23:01.886Z,102074.78
2023-03-01T19:25:33.371Z,102075.91
2023-03-01T19:28:04.888Z,102071.88
2023-03-01T19:30:36.532Z,102071.03
2023-03-01T19:33:08.015Z,102074.19
2023-03-01T19:35:39.831Z,102074.72
2023-03-01T19:38:11.300Z,102074.16
2023-03-01T19:40:43.090Z,102084.25
2023-03-01T19:43:14.565Z,102082.16
2023-03-01T19:45:47.021Z,102086.84
2023-03-01T19:48:18.502Z,102092.53
2023-03-01T19:50:50.289Z,102092.78
2023-03-01T19:53:21.885Z,102085.16
2023-03-01T19:55:53.703Z,102091.25
2023-03-01T19:58:25.209Z,102093.16
2023-03-01T20:01:00.867Z,102092.72
2023-03-01T20:03:32.388Z,102089.78
2023-03-01T20:06:03.882Z,102084.94
2023-03-01T20:08:35.403Z,102081.72
2023-03-01T20:11:06.913Z,102076.59
2023-03-01T20:13:38.728Z,102080.06
2023-03-01T20:16:10.338Z,102082.25
2023-03-01T20:18:42.224Z,102087.19
2023-03-01T20:21:23.524Z,102088.78
2023-03-01T20:23:56.367Z,102087.63
2023-03-01T20:26:28.640Z,102087.91
2023-03-01T20:29:00.512Z,102095.09
2023-03-01T20:31:32.049Z,102089.13
2023-03-01T20:34:04.765Z,102090.09
2023-03-01T20:36:38.346Z,102081.50
2023-03-01T20:39:11.610Z,102073.16
2023-03-01T20:41:43.083Z,102076.75
2023-03-01T20:44:14.962Z,102069.25
2023-03-01T20:46:46.588Z,102076.44
2023-03-01T20:49:18.412Z,102075.81
2023-03-01T20:51:49.873Z,102080.25
2023-03-01T20:54:21.983Z,102075.94
2023-03-01T20:56:53.474Z,102070.13
2023-03-01T20:59:25.038Z,102064.03
2023-03-01T21:01:56.543Z,102066.91
2023-03-01T21:04:28.039Z,102071.59
2023-03-01T21:06:59.538Z,102075.19
2023-03-01T21:09:31.041Z,102075.19
2023-03-01T21:12:04.157Z,102075.81
2023-03-01T21:14:42.701Z,102072.63
2023-03-01T21:17:14.346Z,102071.91
2023-03-01T21:19:46.118Z,102068.81
2023-03-01T21:22:17.586Z,102070.88
2023-03-01T21:24:50.178Z,102071.94
2023-03-01T21:27:22.534Z,102069.44
2023-03-01T21:29:54.378Z,102069.81
2023-03-01T21:32:25.898Z,102066.22
2023-03-01T21:34:59.687Z,102064.69
2023-03-01T21:37:31.177Z,102067.44
2023-03-01T21:40:02.962Z,102071.25
2023-03-01T21:42:35.009Z,102065.31
2023-03-01T21:45:06.643Z,102066.25
2023-03-01T21:47:39.314Z,102064.84
2023-03-01T21:50:11.446Z,102053.63
2023-03-01T21:52:42.938Z,102051.13
2023-03-01T21:55:15.508Z,102055.94
2023-03-01T21:57:46.968Z,102068.34
2023-03-01T22:00:23.585Z,102054.97
2023-03-01T22:02:57.997Z,102054.38
2023-03-01T22:05:29.551Z,102054.50
2023-03-01T22:08:01.038Z,102060.72
2023-03-01T22:10:32.526Z,102060.25
2023-03-01T22:13:04.056Z,102062.28
2023-03-01T22:15:35.958Z,102062.53
2023-03-01T22:18:07.420Z,102061.00
2023-03-01T22:20:39.323Z,102063.75
2023-03-01T22:23:10.848Z,102065.53
2023-03-01T22:25:42.674Z,102067.44
2023-03-01T22:28:14.129Z,102066.84
2023-03-01T22:30:45.608Z,102064.22
2023-03-01T22:33:17.086Z,102062.78
2023-03-01T22:35:48.905Z,102052.53
2023-03-01T22:38:20.388Z,102054.31
2023-03-01T22:40:52.211Z,102045.63
2023-03-01T22:43:23.668Z,102049.19
2023-03-01T22:45:55.680Z,102045.16
2023-03-01T22:48:27.159Z,102043.47
2023-03-01T22:50:59.046Z,102040.03
2023-03-01T22:53:30.669Z,102039.19
2023-03-01T22:56:02.396Z,102036.81
2023-03-01T22:58:33.856Z,102037.66
2023-03-01T23:01:05.674Z,102037.28
2023-03-01T23:03:37.128Z,102043.97
2023-03-01T23:06:08.963Z,102041.09
2023-03-01T23:08:40.450Z,102038.47
2023-03-01T23:11:12.520Z,102035.59
2023-03-01T23:13:44.099Z,102028.44
2023-03-01T23:16:15.856Z,102035.13
2023-03-01T23:18:47.373Z,102028.91
2023-03-01T23:21:19.271Z,102023.56
2023-03-01T23:23:50.961Z,102022.38
2023-03-01T23:26:22.790Z,102016.28
2023-03-01T23:28:54.292Z,102013.78
2023-03-01T23:31:29.966Z,102009.72
2023-03-01T23:34:01.474Z,102006.97
2023-03-01T23:36:33.158Z,102002.91
2023-03-01T23:39:05.049Z,102005.91
2023-03-01T23:41:36.778Z,102002.81
2023-03-01T23:44:08.466Z,102003.19
2023-03-01T23:46:39.986Z,102012.00
2023-03-01T23:49:11.992Z,102001.75
2023-03-01T23:51:44.530Z,102001.19
2023-03-01T23:54:16.234Z,102002.13
2023-03-01T23:56:47.808Z,102002.25
2023-03-01T23:59:19.713Z,102000.09
